Time;durP1;ratioP1;P1;durP2;ratioP2;P2;SDS_P1;SDS_P2;PMS_P1;PMS_P2;Temp;Humidity;BMP_temperature;BMP_pressure;BME280_temperature;BME280_humidity;BME280_pressure;Samples;Min_cycle;Max_cycle;Signal;HPM_P1;HPM_P2
2023/09/16 00:01:59;;;;;;;10.30;4.05;;;;;;;;;;6288183;22;20006;-53
2023/09/16 00:04:26;;;;;;;8.52;4.10;;;;;;;;;;6288720;22;20041;-53
2023/09/16 00:06:52;;;;;;;11.02;3.92;;;;;;;;;;6288928;22;19996;-51
2023/09/16 00:09:19;;;;;;;11.13;4.15;;;;;;;;;;6287566;22;19988;-48
2023/09/16 00:11:46;;;;;;;8.52;3.75;;;;;;;;;;6288903;22;20004;-51
2023/09/16 00:14:12;;;;;;;9.15;3.97;;;;;;;;;;6287985;22;19995;-56
2023/09/16 00:16:40;;;;;;;6.72;4.30;;;;;;;;;;6288391;22;20002;-55
2023/09/16 00:19:09;;;;;;;28.05;22.42;;;;;;;;;;6287231;22;20054;-53
2023/09/16 00:21:35;;;;;;;56.55;46.42;;;;;;;;;;6287411;22;20055;-53
2023/09/16 00:24:02;;;;;;;29.20;22.15;;;;;;;;;;6288265;22;20330;-51
2023/09/16 00:26:28;;;;;;;9.38;6.05;;;;;;;;;;6288624;22;20053;-54
2023/09/16 00:28:55;;;;;;;4.70;3.60;;;;;;;;;;6287996;22;19988;-52
2023/09/16 00:31:22;;;;;;;4.72;3.08;;;;;;;;;;6288511;22;20012;-54
2023/09/16 00:33:49;;;;;;;4.30;3.35;;;;;;;;;;6286368;22;20155;-51
2023/09/16 00:36:15;;;;;;;7.05;3.78;;;;;;;;;;6286637;22;20002;-50
2023/09/16 00:38:43;;;;;;;6.80;4.30;;;;;;;;;;6286918;22;20004;-53
2023/09/16 00:41:12;;;;;;;5.72;3.65;;;;;;;;;;6285021;22;20004;-52
2023/09/16 00:43:39;;;;;;;5.70;4.05;;;;;;;;;;6284009;22;20035;-54
2023/09/16 00:46:07;;;;;;;5.22;4.00;;;;;;;;;;6284549;22;20203;-51
2023/09/16 00:48:35;;;;;;;5.82;3.90;;;;;;;;;;6285820;22;20018;-53
2023/09/16 00:51:01;;;;;;;5.40;3.72;;;;;;;;;;6286596;22;19995;-54
2023/09/16 00:53:29;;;;;;;8.52;3.65;;;;;;;;;;6287352;22;19995;-61
2023/09/16 00:55:56;;;;;;;5.88;3.92;;;;;;;;;;6288119;22;20026;-51
2023/09/16 00:58:23;;;;;;;7.55;5.40;;;;;;;;;;6287331;22;20055;-53
2023/09/16 01:00:50;;;;;;;4.55;4.15;;;;;;;;;;6287750;22;20003;-52
2023/09/16 01:03:16;;;;;;;6.35;4.28;;;;;;;;;;6288010;22;19997;-53
2023/09/16 01:05:46;;;;;;;5.25;3.65;;;;;;;;;;6287882;22;20011;-52
2023/09/16 01:08:13;;;;;;;4.70;3.45;;;;;;;;;;6288301;22;20063;-64
2023/09/16 01:10:40;;;;;;;4.63;4.20;;;;;;;;;;6288099;22;20004;-62
2023/09/16 01:13:08;;;;;;;4.55;3.67;;;;;;;;;;6260948;22;20181;-46
2023/09/16 01:15:37;;;;;;;4.50;3.33;;;;;;;;;;6287564;22;20000;-51
2023/09/16 01:18:06;;;;;;;5.00;3.55;;;;;;;;;;6288169;22;19999;-52
2023/09/16 01:20:33;;;;;;;5.30;3.25;;;;;;;;;;6287587;22;20154;-53
2023/09/16 01:23:00;;;;;;;3.92;3.10;;;;;;;;;;6288000;22;19988;-56
2023/09/16 01:25:28;;;;;;;6.68;3.63;;;;;;;;;;6287873;22;20000;-53
2023/09/16 01:27:55;;;;;;;4.10;3.08;;;;;;;;;;6287635;22;20009;-53
2023/09/16 01:30:22;;;;;;;87.32;11.30;;;;;;;;;;6287100;22;20066;-54
2023/09/16 01:33:08;;;;;;;9.18;3.72;;;;;;;;;;6287907;22;20020;-52
2023/09/16 01:35:38;;;;;;;5.55;3.05;;;;;;;;;;6286262;22;19995;-53
2023/09/16 01:38:07;;;;;;;6.10;3.30;;;;;;;;;;6286627;22;20199;-50
2023/09/16 01:40:34;;;;;;;7.40;2.72;;;;;;;;;;6287002;22;20055;-54
2023/09/16 01:43:04;;;;;;;6.25;3.03;;;;;;;;;;6286650;22;20218;-53
2023/09/16 01:45:40;;;;;;;8.15;3.22;;;;;;;;;;6287184;22;20211;-48
2023/09/16 01:48:09;;;;;;;10.98;3.80;;;;;;;;;;6287417;22;20025;-45
2023/09/16 01:50:36;;;;;;;3.55;2.97;;;;;;;;;;6285466;22;20023;-49
2023/09/16 01:53:06;;;;;;;4.85;3.67;;;;;;;;;;6285816;22;20161;-48
2023/09/16 01:55:33;;;;;;;5.32;3.60;;;;;;;;;;6285364;22;20006;-46
2023/09/16 01:58:00;;;;;;;11.13;4.45;;;;;;;;;;6258141;22;20010;-47
2023/09/16 02:00:27;;;;;;;5.90;3.88;;;;;;;;;;6285063;22;20004;-48
2023/09/16 02:02:54;;;;;;;8.48;3.55;;;;;;;;;;6285115;22;20026;-48
2023/09/16 02:05:20;;;;;;;10.98;4.10;;;;;;;;;;6284346;22;20004;-49
2023/09/16 02:07:47;;;;;;;9.48;3.55;;;;;;;;;;6285472;22;20023;-47
2023/09/16 02:10:14;;;;;;;7.80;3.80;;;;;;;;;;6284847;22;20051;-43
2023/09/16 02:12:44;;;;;;;4.05;3.58;;;;;;;;;;6285551;22;20207;-48
2023/09/16 02:15:11;;;;;;;3.47;3.17;;;;;;;;;;6286858;22;19991;-43
2023/09/16 02:17:41;;;;;;;4.82;3.80;;;;;;;;;;6286338;22;20326;-50
2023/09/16 02:20:12;;;;;;;4.63;3.47;;;;;;;;;;6286022;22;20015;-50
2023/09/16 02:22:40;;;;;;;10.10;3.85;;;;;;;;;;6286847;22;20479;-47
2023/09/16 02:25:06;;;;;;;15.10;4.75;;;;;;;;;;6286555;22;20176;-49
2023/09/16 02:27:34;;;;;;;12.20;4.15;;;;;;;;;;6285176;22;20247;-48
2023/09/16 02:30:02;;;;;;;10.13;3.90;;;;;;;;;;6286881;22;20003;-44
2023/09/16 02:32:31;;;;;;;8.02;4.35;;;;;;;;;;6286862;22;20030;-49
2023/09/16 02:34:57;;;;;;;10.82;5.22;;;;;;;;;;6286690;22;19991;-49
2023/09/16 02:37:24;;;;;;;15.07;5.65;;;;;;;;;;6259678;22;20241;-43
2023/09/16 02:39:50;;;;;;;14.27;5.80;;;;;;;;;;6286957;22;20186;-44
2023/09/16 02:42:17;;;;;;;16.88;6.28;;;;;;;;;;6287010;22;20142;-48
2023/09/16 02:44:44;;;;;;;11.32;4.82;;;;;;;;;;6286970;22;19996;-50
2023/09/16 02:47:11;;;;;;;12.95;4.75;;;;;;;;;;6287294;22;20287;-54
2023/09/16 02:49:37;;;;;;;8.88;4.53;;;;;;;;;;6287104;22;20089;-43
2023/09/16 02:52:04;;;;;;;5.70;4.32;;;;;;;;;;6286846;22;19988;-43
2023/09/16 02:54:31;;;;;;;8.80;5.55;;;;;;;;;;6286904;22;20055;-47
2023/09/16 02:56:57;;;;;;;8.40;4.80;;;;;;;;;;6286170;22;20280;-46
2023/09/16 02:59:24;;;;;;;6.28;4.18;;;;;;;;;;6286705;22;19995;-49
2023/09/16 03:01:51;;;;;;;4.82;4.32;;;;;;;;;;6287056;22;19999;-45
2023/09/16 03:04:17;;;;;;;14.73;10.45;;;;;;;;;;6285629;22;20272;-43
2023/09/16 03:06:44;;;;;;;8.02;6.03;;;;;;;;;;6288572;22;19995;-45
2023/09/16 03:09:10;;;;;;;6.47;5.13;;;;;;;;;;6288473;22;20000;-48
2023/09/16 03:11:37;;;;;;;9.43;4.65;;;;;;;;;;6289369;22;19995;-49
2023/09/16 03:14:04;;;;;;;7.65;4.50;;;;;;;;;;6289227;22;19995;-51
2023/09/16 03:16:31;;;;;;;5.15;3.90;;;;;;;;;;6288982;22;20003;-48
2023/09/16 03:18:58;;;;;;;6.65;4.28;;;;;;;;;;6261705;22;20291;-46
2023/09/16 03:21:27;;;;;;;6.13;4.20;;;;;;;;;;6289344;22;20282;-45
2023/09/16 03:23:53;;;;;;;9.45;4.28;;;;;;;;;;6289028;22;19999;-45
2023/09/16 03:26:20;;;;;;;7.97;4.32;;;;;;;;;;6289178;22;19988;-48
2023/09/16 03:28:48;;;;;;;6.05;3.60;;;;;;;;;;6288973;22;20013;-47
2023/09/16 03:31:15;;;;;;;6.50;3.65;;;;;;;;;;6289017;22;20015;-51
2023/09/16 03:33:42;;;;;;;6.47;3.85;;;;;;;;;;6288661;22;19995;-45
2023/09/16 03:36:09;;;;;;;5.45;3.75;;;;;;;;;;6289139;22;19996;-49
2023/09/16 03:38:36;;;;;;;6.18;3.85;;;;;;;;;;6288745;22;20010;-45
2023/09/16 03:41:02;;;;;;;4.45;3.50;;;;;;;;;;6288610;22;20053;-45
2023/09/16 03:43:29;;;;;;;4.78;3.70;;;;;;;;;;6288787;22;20011;-44
2023/09/16 03:45:56;;;;;;;3.75;3.40;;;;;;;;;;6288792;22;20295;-49
2023/09/16 03:48:22;;;;;;;6.57;3.70;;;;;;;;;;6288464;22;19999;-48
2023/09/16 03:50:49;;;;;;;4.72;3.40;;;;;;;;;;6288678;22;19992;-52
2023/09/16 03:53:18;;;;;;;4.13;3.22;;;;;;;;;;6288427;22;20010;-45
2023/09/16 03:55:46;;;;;;;4.65;3.00;;;;;;;;;;6287940;22;19996;-49
2023/09/16 03:58:12;;;;;;;4.35;3.13;;;;;;;;;;6288456;22;19998;-48
2023/09/16 04:00:39;;;;;;;5.47;2.97;;;;;;;;;;6288153;22;20003;-45
2023/09/16 04:03:06;;;;;;;4.13;2.45;;;;;;;;;;6288219;22;20227;-52
2023/09/16 04:05:32;;;;;;;3.85;2.10;;;;;;;;;;6288563;22;20268;-50
2023/09/16 04:07:59;;;;;;;3.75;1.95;;;;;;;;;;6288423;22;20165;-48
2023/09/16 04:10:26;;;;;;;21.90;3.58;;;;;;;;;;6288147;22;20042;-51
2023/09/16 04:12:52;;;;;;;56.92;6.45;;;;;;;;;;6288053;22;19995;-45
2023/09/16 04:15:19;;;;;;;28.00;3.95;;;;;;;;;;6287992;22;20004;-50
2023/09/16 04:17:46;;;;;;;35.08;4.38;;;;;;;;;;6287174;22;20002;-47
2023/09/16 04:20:12;;;;;;;18.92;4.07;;;;;;;;;;6286809;22;20004;-47
2023/09/16 04:22:39;;;;;;;15.35;4.53;;;;;;;;;;6288459;22;20000;-50
2023/09/16 04:25:06;;;;;;;15.98;5.25;;;;;;;;;;6286444;22;19987;-57
2023/09/16 04:27:33;;;;;;;13.40;5.60;;;;;;;;;;6287098;22;19995;-43
2023/09/16 04:29:59;;;;;;;8.85;4.15;;;;;;;;;;6288132;22;20055;-46
2023/09/16 04:32:26;;;;;;;10.02;4.13;;;;;;;;;;6287350;22;20000;-45
2023/09/16 04:34:57;;;;;;;12.82;4.72;;;;;;;;;;6287970;22;20002;-46
2023/09/16 04:37:24;;;;;;;8.93;4.10;;;;;;;;;;6287174;22;20012;-46
2023/09/16 04:39:51;;;;;;;5.55;3.30;;;;;;;;;;6287492;22;19999;-43
2023/09/16 04:42:17;;;;;;;6.25;3.13;;;;;;;;;;6288264;22;19992;-45
2023/09/16 04:44:44;;;;;;;6.47;3.30;;;;;;;;;;6288243;22;20022;-43
2023/09/16 04:47:11;;;;;;;4.03;2.97;;;;;;;;;;6287343;22;19988;-45
2023/09/16 04:49:38;;;;;;;3.55;2.83;;;;;;;;;;6287370;22;20195;-45
2023/09/16 04:52:04;;;;;;;3.95;3.00;;;;;;;;;;6288649;22;20000;-44
2023/09/16 04:54:35;;;;;;;5.50;2.70;;;;;;;;;;6285906;22;20002;-47
2023/09/16 04:57:02;;;;;;;5.53;2.70;;;;;;;;;;6288740;22;19992;-43
2023/09/16 04:59:32;;;;;;;5.15;2.40;;;;;;;;;;6260603;22;20278;-44
2023/09/16 05:01:59;;;;;;;5.53;2.72;;;;;;;;;;6288056;22;20011;-44
2023/09/16 05:04:26;;;;;;;6.32;2.83;;;;;;;;;;6288399;22;19991;-50
2023/09/16 05:06:53;;;;;;;5.88;2.70;;;;;;;;;;6288542;22;19995;-47
2023/09/16 05:09:22;;;;;;;4.68;2.70;;;;;;;;;;6287745;22;20165;-44
2023/09/16 05:11:48;;;;;;;4.85;2.80;;;;;;;;;;6287424;22;19995;-41
2023/09/16 05:14:16;;;;;;;5.13;3.10;;;;;;;;;;6287064;22;20059;-48
2023/09/16 05:16:43;;;;;;;3.33;2.60;;;;;;;;;;6288186;22;20264;-48
2023/09/16 05:19:10;;;;;;;3.10;2.75;;;;;;;;;;6287868;22;20055;-44
2023/09/16 05:21:36;;;;;;;5.35;2.63;;;;;;;;;;6288218;22;20055;-45
2023/09/16 05:24:03;;;;;;;5.00;3.10;;;;;;;;;;6286135;22;19999;-45
2023/09/16 05:26:31;;;;;;;3.05;2.70;;;;;;;;;;6287894;22;19990;-44
2023/09/16 05:28:58;;;;;;;6.07;3.10;;;;;;;;;;6284848;22;20007;-50
2023/09/16 05:31:24;;;;;;;5.00;2.88;;;;;;;;;;6286921;22;20049;-46
2023/09/16 05:33:51;;;;;;;7.28;3.30;;;;;;;;;;6286926;22;20051;-42
2023/09/16 05:36:18;;;;;;;3.92;2.95;;;;;;;;;;6286967;22;19999;-47
2023/09/16 05:38:45;;;;;;;3.35;2.78;;;;;;;;;;6287098;22;19996;-51
2023/09/16 05:41:13;;;;;;;6.40;3.00;;;;;;;;;;6287803;22;20294;-44
2023/09/16 05:43:39;;;;;;;3.60;2.90;;;;;;;;;;6287104;22;20000;-45
2023/09/16 05:46:06;;;;;;;4.22;2.78;;;;;;;;;;6286976;22;19992;-48
2023/09/16 05:48:33;;;;;;;3.35;2.50;;;;;;;;;;6287298;22;20053;-44
2023/09/16 05:50:59;;;;;;;3.05;2.50;;;;;;;;;;6288081;22;20307;-45
2023/09/16 05:53:26;;;;;;;2.88;2.25;;;;;;;;;;6285836;22;20022;-51
2023/09/16 05:55:53;;;;;;;4.28;2.45;;;;;;;;;;6287661;22;19999;-47
2023/09/16 05:58:20;;;;;;;4.13;2.35;;;;;;;;;;6287503;22;20010;-44
2023/09/16 06:00:59;;;;;;;4.28;2.58;;;;;;;;;;6287553;22;20002;-46
2023/09/16 06:03:25;;;;;;;2.97;2.35;;;;;;;;;;6287123;22;20053;-45
2023/09/16 06:06:01;;;;;;;4.03;2.40;;;;;;;;;;6287658;22;20015;-51
2023/09/16 06:08:28;;;;;;;2.95;2.30;;;;;;;;;;6286695;22;20004;-45
2023/09/16 06:10:55;;;;;;;4.20;2.47;;;;;;;;;;6287042;22;19999;-51
2023/09/16 06:13:22;;;;;;;4.28;2.60;;;;;;;;;;6285057;22;20047;-47
2023/09/16 06:15:49;;;;;;;3.83;2.50;;;;;;;;;;6286586;22;20003;-44
2023/09/16 06:18:16;;;;;;;4.68;2.50;;;;;;;;;;6285274;22;20279;-51
2023/09/16 06:20:42;;;;;;;3.85;2.40;;;;;;;;;;6286442;22;20000;-54
2023/09/16 06:23:09;;;;;;;4.88;2.33;;;;;;;;;;6286661;22;20030;-47
2023/09/16 06:25:36;;;;;;;3.33;2.53;;;;;;;;;;6286452;22;19996;-47
2023/09/16 06:28:04;;;;;;;2.35;2.15;;;;;;;;;;6285107;22;19999;-49
2023/09/16 06:30:30;;;;;;;3.45;2.38;;;;;;;;;;6285909;22;20012;-50
2023/09/16 06:32:58;;;;;;;2.67;2.38;;;;;;;;;;6286196;22;20007;-44
2023/09/16 06:35:24;;;;;;;3.92;3.13;;;;;;;;;;6286586;22;19992;-48
2023/09/16 06:37:51;;;;;;;4.82;2.30;;;;;;;;;;6285563;22;20095;-44
2023/09/16 06:40:18;;;;;;;3.20;2.33;;;;;;;;;;6286254;22;20030;-46
2023/09/16 06:42:45;;;;;;;3.72;2.50;;;;;;;;;;6285783;22;20038;-42
2023/09/16 06:45:12;;;;;;;5.07;2.47;;;;;;;;;;6286501;22;20230;-43
2023/09/16 06:47:39;;;;;;;7.55;2.85;;;;;;;;;;6287010;22;20023;-46
2023/09/16 06:50:08;;;;;;;2.70;2.50;;;;;;;;;;6286994;22;20025;-46
2023/09/16 06:52:35;;;;;;;5.80;2.40;;;;;;;;;;6286322;22;20008;-53
2023/09/16 06:55:01;;;;;;;3.95;2.50;;;;;;;;;;6285875;22;19999;-46
2023/09/16 06:57:28;;;;;;;4.53;2.72;;;;;;;;;;6285652;22;20200;-44
2023/09/16 06:59:55;;;;;;;3.33;2.40;;;;;;;;;;6285889;22;20229;-49
2023/09/16 07:02:22;;;;;;;5.45;2.63;;;;;;;;;;6286613;22;19999;-44
2023/09/16 07:04:50;;;;;;;3.83;2.30;;;;;;;;;;6286755;22;20010;-40
2023/09/16 07:07:17;;;;;;;3.50;2.65;;;;;;;;;;6287003;22;20073;-47
2023/09/16 07:09:43;;;;;;;3.55;2.38;;;;;;;;;;6287138;22;20000;-44
2023/09/16 07:12:10;;;;;;;4.28;2.42;;;;;;;;;;6287549;22;19987;-45
2023/09/16 07:14:37;;;;;;;4.60;2.30;;;;;;;;;;6286255;22;20008;-45
2023/09/16 07:17:04;;;;;;;4.68;2.67;;;;;;;;;;6286936;22;20183;-49
2023/09/16 07:19:33;;;;;;;4.00;2.58;;;;;;;;;;6286374;22;19999;-42
2023/09/16 07:22:01;;;;;;;4.38;2.42;;;;;;;;;;6286801;22;20055;-49
2023/09/16 07:24:27;;;;;;;4.88;2.80;;;;;;;;;;6285712;22;20300;-42
2023/09/16 07:26:54;;;;;;;7.10;3.05;;;;;;;;;;6286388;22;19994;-46
2023/09/16 07:29:22;;;;;;;3.60;2.80;;;;;;;;;;6285097;22;20030;-43
2023/09/16 07:31:49;;;;;;;5.57;2.95;;;;;;;;;;6285810;22;20014;-48
2023/09/16 07:34:15;;;;;;;4.50;2.60;;;;;;;;;;6286458;22;20010;-45
2023/09/16 07:36:42;;;;;;;4.78;2.50;;;;;;;;;;6286295;22;20101;-45
2023/09/16 07:39:09;;;;;;;4.43;2.47;;;;;;;;;;6285434;22;20054;-46
2023/09/16 07:41:36;;;;;;;4.05;2.50;;;;;;;;;;6286173;22;20036;-49
2023/09/16 07:44:02;;;;;;;4.90;2.80;;;;;;;;;;6285911;22;20073;-46
2023/09/16 07:46:29;;;;;;;5.75;2.65;;;;;;;;;;6285349;22;20168;-54
2023/09/16 07:48:55;;;;;;;4.72;2.55;;;;;;;;;;6286368;22;19995;-44
2023/09/16 07:51:22;;;;;;;4.03;2.88;;;;;;;;;;6287397;22;20004;-50
2023/09/16 07:53:49;;;;;;;6.20;3.05;;;;;;;;;;6261859;22;20073;-44
2023/09/16 07:56:20;;;;;;;6.20;2.70;;;;;;;;;;6289084;22;19992;-46
2023/09/16 07:58:46;;;;;;;5.25;2.58;;;;;;;;;;6288440;22;20007;-44
2023/09/16 08:01:13;;;;;;;5.47;2.72;;;;;;;;;;6288282;22;20003;-46
2023/09/16 08:03:42;;;;;;;4.70;2.60;;;;;;;;;;6288258;22;20276;-48
2023/09/16 08:06:09;;;;;;;3.65;2.60;;;;;;;;;;6286891;22;20014;-44
2023/09/16 08:08:36;;;;;;;3.92;2.97;;;;;;;;;;6286611;22;19999;-50
2023/09/16 08:11:02;;;;;;;6.30;2.80;;;;;;;;;;6287715;22;19992;-49
2023/09/16 08:13:29;;;;;;;3.85;2.72;;;;;;;;;;6287996;22;20303;-43
2023/09/16 08:15:56;;;;;;;6.47;2.78;;;;;;;;;;6288691;22;20000;-49
2023/09/16 08:18:22;;;;;;;4.20;2.65;;;;;;;;;;6288459;22;20003;-45
2023/09/16 08:20:49;;;;;;;4.03;2.40;;;;;;;;;;6287383;22;20045;-48
2023/09/16 08:23:16;;;;;;;5.13;2.63;;;;;;;;;;6286948;22;20003;-48
2023/09/16 08:25:45;;;;;;;6.38;3.05;;;;;;;;;;6287639;22;20325;-48
2023/09/16 08:28:12;;;;;;;6.15;3.30;;;;;;;;;;6288239;22;20003;-50
2023/09/16 08:30:38;;;;;;;8.05;2.97;;;;;;;;;;6287710;22;20061;-47
2023/09/16 08:33:05;;;;;;;5.15;3.20;;;;;;;;;;6287820;22;20002;-46
2023/09/16 08:35:32;;;;;;;5.45;3.33;;;;;;;;;;6286937;22;20023;-53
2023/09/16 08:38:01;;;;;;;7.35;3.20;;;;;;;;;;6287891;22;20215;-46
2023/09/16 08:40:29;;;;;;;5.40;3.33;;;;;;;;;;6287649;22;19995;-46
2023/09/16 08:43:14;;;;;;;8.98;3.03;;;;;;;;;;6287561;22;20094;-55
2023/09/16 08:45:44;;;;;;;4.15;2.60;;;;;;;;;;6287009;22;20027;-45
2023/09/16 08:48:14;;;;;;;6.40;2.75;;;;;;;;;;6287468;22;20059;-54
2023/09/16 08:50:42;;;;;;;4.30;2.40;;;;;;;;;;6285980;22;20248;-44
2023/09/16 08:53:14;;;;;;;3.40;2.55;;;;;;;;;;6287723;22;20215;-43
2023/09/16 08:55:42;;;;;;;5.38;2.78;;;;;;;;;;6286797;22;20019;-42
2023/09/16 08:58:09;;;;;;;7.43;3.15;;;;;;;;;;6288192;22;20003;-42
2023/09/16 09:00:37;;;;;;;5.63;2.78;;;;;;;;;;6287271;22;20000;-42
2023/09/16 09:03:04;;;;;;;5.05;2.60;;;;;;;;;;6285821;22;20004;-45
2023/09/16 09:05:32;;;;;;;3.72;2.60;;;;;;;;;;6288416;22;19995;-47
2023/09/16 09:07:59;;;;;;;6.65;2.92;;;;;;;;;;6288063;22;19991;-50
2023/09/16 09:10:26;;;;;;;6.45;3.00;;;;;;;;;;6287840;22;20003;-45
2023/09/16 09:12:52;;;;;;;6.55;2.78;;;;;;;;;;6286682;22;20007;-48
2023/09/16 09:15:19;;;;;;;6.88;2.83;;;;;;;;;;6286747;22;20047;-48
2023/09/16 09:17:52;;;;;;;4.82;3.00;;;;;;;;;;6286422;22;20014;-44
2023/09/16 09:20:18;;;;;;;;;;;;;;;;;;6287546;22;20000;-47
2023/09/16 09:22:45;;;;;;;6.65;2.45;;;;;;;;;;6287506;22;19899;-45
2023/09/16 09:25:11;;;;;;;9.00;2.90;;;;;;;;;;6287202;22;20003;-47
2023/09/16 09:27:38;;;;;;;9.63;3.50;;;;;;;;;;6287831;22;20006;-43
2023/09/16 09:30:05;;;;;;;3.70;2.58;;;;;;;;;;6287526;22;20031;-45
2023/09/16 09:32:32;;;;;;;4.00;2.80;;;;;;;;;;6287550;22;20069;-45
2023/09/16 09:35:05;;;;;;;7.35;2.97;;;;;;;;;;6285742;22;19995;-45
2023/09/16 09:37:32;;;;;;;6.65;2.50;;;;;;;;;;6287149;22;20015;-44
2023/09/16 09:40:13;;;;;;;4.50;2.97;;;;;;;;;;6287303;22;19996;-45
2023/09/16 09:42:40;;;;;;;7.30;2.53;;;;;;;;;;6287724;22;19996;-46
2023/09/16 09:45:07;;;;;;;6.45;2.75;;;;;;;;;;6287495;22;20152;-45
2023/09/16 09:47:34;;;;;;;7.25;2.65;;;;;;;;;;6287567;22;20183;-47
2023/09/16 09:50:01;;;;;;;6.70;2.83;;;;;;;;;;6287507;22;19999;-47
2023/09/16 09:52:28;;;;;;;3.90;2.40;;;;;;;;;;6285260;22;20022;-45
2023/09/16 09:54:57;;;;;;;5.30;2.50;;;;;;;;;;6285026;22;20086;-44
2023/09/16 09:57:27;;;;;;;5.40;2.78;;;;;;;;;;6287484;22;20057;-52
2023/09/16 09:59:54;;;;;;;5.32;2.63;;;;;;;;;;6287047;22;19995;-48
2023/09/16 10:02:23;;;;;;;5.82;3.00;;;;;;;;;;6287430;22;20015;-46
2023/09/16 10:04:50;;;;;;;5.25;3.00;;;;;;;;;;6287482;22;19988;-49
2023/09/16 10:07:17;;;;;;;6.95;3.10;;;;;;;;;;6287826;22;19996;-53
2023/09/16 10:09:44;;;;;;;6.72;2.83;;;;;;;;;;6287275;22;20043;-43
2023/09/16 10:12:12;;;;;;;6.68;2.85;;;;;;;;;;6287911;22;19998;-50
2023/09/16 10:14:39;;;;;;;6.70;2.85;;;;;;;;;;6286808;22;20056;-47
2023/09/16 10:17:06;;;;;;;11.32;2.90;;;;;;;;;;6287732;22;20043;-48
2023/09/16 10:19:33;;;;;;;5.60;3.05;;;;;;;;;;6287250;22;20002;-45
2023/09/16 10:21:59;;;;;;;6.07;2.97;;;;;;;;;;6287186;22;20006;-47
2023/09/16 10:24:27;;;;;;;5.00;2.80;;;;;;;;;;6287363;22;20007;-44
2023/09/16 10:26:55;;;;;;;6.70;2.88;;;;;;;;;;6287762;22;19987;-48
2023/09/16 10:29:22;;;;;;;4.28;2.47;;;;;;;;;;6286883;22;20004;-44
2023/09/16 10:31:49;;;;;;;5.60;2.78;;;;;;;;;;6287603;22;19995;-44
2023/09/16 10:34:16;;;;;;;7.88;2.88;;;;;;;;;;6287437;22;20307;-45
2023/09/16 10:36:43;;;;;;;7.20;3.30;;;;;;;;;;6287394;22;20275;-45
2023/09/16 10:39:10;;;;;;;7.45;3.50;;;;;;;;;;6287126;22;19995;-44
2023/09/16 10:41:38;;;;;;;5.82;4.07;;;;;;;;;;6287207;22;19992;-44
2023/09/16 10:44:05;;;;;;;7.72;4.22;;;;;;;;;;6286938;22;20006;-46
2023/09/16 10:46:35;;;;;;;5.80;3.80;;;;;;;;;;6287455;22;19999;-44
2023/09/16 10:49:02;;;;;;;7.60;4.07;;;;;;;;;;6287138;22;19992;-44
2023/09/16 10:51:29;;;;;;;7.47;3.90;;;;;;;;;;6287369;22;20183;-43
2023/09/16 10:54:09;;;;;;;8.43;4.18;;;;;;;;;;6287093;22;19992;-45
2023/09/16 10:56:39;;;;;;;8.38;3.67;;;;;;;;;;6286949;22;20010;-50
2023/09/16 10:59:13;;;;;;;3.95;3.42;;;;;;;;;;6287076;22;20004;-45
2023/09/16 11:02:06;;;;;;;8.27;3.47;;;;;;;;;;6287377;22;20188;-42
2023/09/16 11:04:33;;;;;;;15.90;3.75;;;;;;;;;;6230383;22;20195;-43
2023/09/16 11:06:59;;;;;;;7.25;3.30;;;;;;;;;;6287495;22;19999;-44
2023/09/16 11:09:26;;;;;;;8.80;3.60;;;;;;;;;;6286923;22;20004;-46
2023/09/16 11:11:53;;;;;;;5.38;3.53;;;;;;;;;;6287477;22;20039;-45
2023/09/16 11:14:21;;;;;;;9.48;3.95;;;;;;;;;;6287018;22;20014;-45
2023/09/16 11:16:52;;;;;;;6.63;3.65;;;;;;;;;;6287199;22;20000;-50
2023/09/16 11:19:25;;;;;;;7.60;3.85;;;;;;;;;;6286813;22;19992;-47
2023/09/16 11:21:57;;;;;;;11.70;4.25;;;;;;;;;;6286069;22;20010;-53
2023/09/16 11:24:24;;;;;;;8.80;4.10;;;;;;;;;;6286995;22;19999;-48
2023/09/16 11:26:51;;;;;;;5.22;3.50;;;;;;;;;;6288262;22;19988;-45
2023/09/16 11:29:18;;;;;;;7.75;3.35;;;;;;;;;;6288864;22;20015;-48
2023/09/16 11:31:45;;;;;;;7.40;3.25;;;;;;;;;;6289409;22;19996;-44
2023/09/16 11:34:12;;;;;;;4.75;3.00;;;;;;;;;;6288928;22;20041;-48
2023/09/16 11:36:45;;;;;;;4.75;2.80;;;;;;;;;;6288497;22;20062;-49
2023/09/16 11:39:11;;;;;;;4.88;3.05;;;;;;;;;;6286777;22;20196;-50
2023/09/16 11:41:38;;;;;;;3.83;2.85;;;;;;;;;;6287271;22;20065;-50
2023/09/16 11:44:05;;;;;;;5.90;2.97;;;;;;;;;;6286557;22;20324;-46
2023/09/16 11:46:32;;;;;;;9.15;3.45;;;;;;;;;;6287024;22;19996;-46
2023/09/16 11:49:04;;;;;;;7.32;3.10;;;;;;;;;;6286786;22;19988;-49
2023/09/16 11:51:32;;;;;;;7.00;2.85;;;;;;;;;;6287114;22;20034;-51
2023/09/16 11:53:59;;;;;;;4.15;3.05;;;;;;;;;;6288713;22;20003;-47
2023/09/16 11:56:27;;;;;;;6.28;3.00;;;;;;;;;;6288830;22;19999;-54
2023/09/16 11:58:54;;;;;;;5.88;3.40;;;;;;;;;;6288544;22;20015;-47
2023/09/16 12:01:22;;;;;;;8.43;3.78;;;;;;;;;;6289081;22;20000;-45
2023/09/16 12:03:49;;;;;;;9.60;5.13;;;;;;;;;;6288496;22;20346;-53
2023/09/16 12:06:20;;;;;;;7.35;3.83;;;;;;;;;;6287981;22;20004;-58
2023/09/16 12:08:47;;;;;;;4.85;3.35;;;;;;;;;;6288454;22;20008;-46
2023/09/16 12:11:15;;;;;;;5.85;4.22;;;;;;;;;;6288743;22;19989;-47
2023/09/16 12:13:42;;;;;;;5.55;3.22;;;;;;;;;;6287616;22;20057;-45
2023/09/16 12:16:11;;;;;;;4.82;3.25;;;;;;;;;;6288731;22;20180;-49
2023/09/16 12:18:38;;;;;;;5.10;3.10;;;;;;;;;;6287817;22;20042;-48
2023/09/16 12:21:06;;;;;;;5.20;2.63;;;;;;;;;;6288270;22;20328;-53
2023/09/16 12:23:33;;;;;;;5.47;2.72;;;;;;;;;;6288249;22;20048;-48
2023/09/16 12:26:00;;;;;;;4.55;3.20;;;;;;;;;;6288137;22;19992;-46
2023/09/16 12:28:31;;;;;;;3.95;2.92;;;;;;;;;;6287995;22;20065;-48
2023/09/16 12:30:58;;;;;;;5.57;2.88;;;;;;;;;;6288237;22;20012;-44
2023/09/16 12:33:37;;;;;;;4.78;2.80;;;;;;;;;;6288311;22;19992;-45
2023/09/16 12:36:04;;;;;;;3.10;2.70;;;;;;;;;;6287063;22;20014;-51
2023/09/16 12:38:34;;;;;;;4.13;2.67;;;;;;;;;;6287137;22;20003;-48
2023/09/16 12:41:02;;;;;;;4.53;2.90;;;;;;;;;;6288166;22;19991;-48
2023/09/16 12:43:30;;;;;;;4.80;2.47;;;;;;;;;;6287531;22;20011;-48
2023/09/16 12:45:58;;;;;;;3.85;2.42;;;;;;;;;;6288162;22;20000;-51
2023/09/16 12:48:25;;;;;;;5.03;2.60;;;;;;;;;;6287732;22;20303;-49
2023/09/16 12:50:52;;;;;;;3.55;2.65;;;;;;;;;;6288360;22;20011;-47
2023/09/16 12:53:19;;;;;;;5.13;2.58;;;;;;;;;;6288044;22;20191;-59
2023/09/16 12:55:50;;;;;;;6.25;2.63;;;;;;;;;;6287877;22;20300;-46
2023/09/16 12:58:18;;;;;;;16.87;3.60;;;;;;;;;;6288077;22;20325;-47
2023/09/16 13:00:45;;;;;;;9.00;2.53;;;;;;;;;;6288073;22;20254;-47
2023/09/16 13:03:11;;;;;;;3.03;2.25;;;;;;;;;;6287593;22;19999;-46
2023/09/16 13:05:38;;;;;;;9.13;2.65;;;;;;;;;;6288235;22;20045;-46
2023/09/16 13:08:05;;;;;;;4.20;2.72;;;;;;;;;;6287369;22;20006;-47
2023/09/16 13:10:33;;;;;;;4.20;2.20;;;;;;;;;;6260496;22;20187;-51
2023/09/16 13:12:59;;;;;;;5.00;2.67;;;;;;;;;;6287882;22;20014;-43
2023/09/16 13:15:26;;;;;;;5.00;2.75;;;;;;;;;;6288064;22;20006;-48
2023/09/16 13:17:59;;;;;;;3.92;2.20;;;;;;;;;;6260650;22;20264;-44
2023/09/16 13:20:31;;;;;;;5.25;2.60;;;;;;;;;;6287772;22;20010;-47
2023/09/16 13:22:58;;;;;;;3.00;2.55;;;;;;;;;;6287702;22;20045;-49
2023/09/16 13:25:43;;;;;;;4.88;2.95;;;;;;;;;;6287787;22;19988;-44
2023/09/16 13:28:11;;;;;;;4.15;2.80;;;;;;;;;;6287257;22;20050;-42
2023/09/16 13:30:38;;;;;;;4.57;2.85;;;;;;;;;;6287252;22;20061;-50
2023/09/16 13:33:06;;;;;;;3.15;2.75;;;;;;;;;;6286956;22;20056;-49
2023/09/16 13:35:37;;;;;;;4.20;2.53;;;;;;;;;;6287721;22;20172;-49
2023/09/16 13:38:05;;;;;;;5.88;2.97;;;;;;;;;;6287421;22;20007;-49
2023/09/16 13:40:32;;;;;;;4.15;2.83;;;;;;;;;;6285961;22;20042;-46
2023/09/16 13:42:59;;;;;;;4.25;2.63;;;;;;;;;;6286498;22;19998;-44
2023/09/16 13:45:27;;;;;;;4.68;2.85;;;;;;;;;;6287181;22;20000;-49
2023/09/16 13:48:11;;;;;;;4.55;2.78;;;;;;;;;;6287009;22;20003;-49
2023/09/16 13:50:40;;;;;;;11.38;3.30;;;;;;;;;;6287082;22;19999;-43
2023/09/16 13:53:06;;;;;;;31.52;5.00;;;;;;;;;;6287537;22;20046;-45
2023/09/16 13:55:33;;;;;;;26.05;4.93;;;;;;;;;;6287534;22;19996;-48
2023/09/16 13:58:00;;;;;;;32.33;4.53;;;;;;;;;;6287530;22;20296;-45
2023/09/16 14:00:26;;;;;;;19.02;4.38;;;;;;;;;;6287251;22;19999;-52
2023/09/16 14:02:53;;;;;;;19.05;4.53;;;;;;;;;;6286894;22;19998;-49
2023/09/16 14:05:20;;;;;;;11.60;3.85;;;;;;;;;;6287631;22;19996;-48
2023/09/16 14:07:47;;;;;;;12.55;4.40;;;;;;;;;;6287432;22;20006;-54
2023/09/16 14:10:15;;;;;;;17.27;3.78;;;;;;;;;;6287181;22;20171;-55
2023/09/16 14:12:41;;;;;;;12.18;3.50;;;;;;;;;;6284770;22;20054;-48
2023/09/16 14:15:08;;;;;;;13.55;3.70;;;;;;;;;;6287331;22;19999;-42
2023/09/16 14:17:35;;;;;;;8.18;3.67;;;;;;;;;;6287136;22;20053;-46
2023/09/16 14:20:03;;;;;;;8.38;3.15;;;;;;;;;;6287164;22;20349;-46
2023/09/16 14:22:30;;;;;;;9.40;3.60;;;;;;;;;;6287075;22;20165;-47
2023/09/16 14:24:57;;;;;;;6.85;2.97;;;;;;;;;;6286875;22;20066;-51
2023/09/16 14:27:24;;;;;;;4.95;3.20;;;;;;;;;;6285679;22;19991;-46
2023/09/16 14:29:51;;;;;;;5.15;2.85;;;;;;;;;;6284718;22;20295;-51
2023/09/16 14:32:17;;;;;;;5.72;2.90;;;;;;;;;;6286151;22;20054;-54
2023/09/16 14:34:44;;;;;;;3.22;2.92;;;;;;;;;;6285700;22;20378;-53
2023/09/16 14:37:11;;;;;;;3.47;2.67;;;;;;;;;;6285161;22;20000;-52
2023/09/16 14:39:38;;;;;;;6.68;3.03;;;;;;;;;;6283730;22;20222;-54
2023/09/16 14:42:07;;;;;;;4.50;3.17;;;;;;;;;;6285450;22;19992;-55
2023/09/16 14:44:34;;;;;;;4.63;3.10;;;;;;;;;;6284295;22;20236;-54